createdAt,value
2022-10-31T00:01:30.238Z,12.87
2022-10-31T00:03:58.567Z,11.17
2022-10-31T00:06:27.521Z,11.63
2022-10-31T00:08:57.235Z,11.93
2022-10-31T00:11:25.824Z,12.10
2022-10-31T00:13:54.330Z,12.20
2022-10-31T00:16:25.417Z,11.00
2022-10-31T00:18:56.618Z,11.73
2022-10-31T00:21:25.934Z,11.17
2022-10-31T00:23:54.553Z,11.83
2022-10-31T00:26:22.824Z,11.33
2022-10-31T00:28:52.145Z,11.17
2022-10-31T00:31:20.636Z,10.60
2022-10-31T00:33:48.919Z,11.10
2022-10-31T00:36:20.611Z,12.07
2022-10-31T00:38:49.771Z,10.93
2022-10-31T00:41:19.645Z,10.33
2022-10-31T00:43:48.084Z,10.33
2022-10-31T00:46:16.627Z,9.73
2022-10-31T00:48:45.070Z,9.87
2022-10-31T00:51:13.411Z,9.10
2022-10-31T00:53:43.073Z,10.17
2022-10-31T00:56:11.342Z,9.37
2022-10-31T00:58:39.611Z,9.57
2022-10-31T01:01:08.066Z,9.23
2022-10-31T01:03:36.566Z,8.37
2022-10-31T01:06:07.555Z,9.47
2022-10-31T01:08:36.190Z,9.17
2022-10-31T01:11:14.056Z,8.70
2022-10-31T01:13:43.063Z,9.20
2022-10-31T01:16:14.654Z,9.93
2022-10-31T01:18:43.085Z,9.57
2022-10-31T01:21:17.653Z,8.83
2022-10-31T01:23:46.872Z,8.80
2022-10-31T01:26:20.597Z,9.47
2022-10-31T01:28:53.196Z,8.67
2022-10-31T01:31:23.886Z,8.97
2022-10-31T01:33:52.550Z,9.07
2022-10-31T01:36:23.606Z,8.57
2022-10-31T01:38:53.256Z,8.27
2022-10-31T01:41:25.025Z,9.33
2022-10-31T01:43:55.655Z,8.10
2022-10-31T01:46:27.014Z,9.00
2022-10-31T01:48:57.457Z,8.90
2022-10-31T01:51:30.987Z,8.47
2022-10-31T01:54:04.214Z,8.20
2022-10-31T01:56:36.567Z,8.07
2022-10-31T01:59:08.678Z,9.73
2022-10-31T02:01:37.746Z,8.93
2022-10-31T02:04:06.989Z,8.17
2022-10-31T02:06:39.862Z,8.30
2022-10-31T02:09:09.011Z,7.80
2022-10-31T02:11:39.167Z,8.33
2022-10-31T02:14:07.463Z,8.10
2022-10-31T02:16:35.737Z,8.77
2022-10-31T02:19:04.717Z,8.53
2022-10-31T02:21:42.498Z,8.93
2022-10-31T02:24:34.390Z,9.50
2022-10-31T02:27:45.297Z,8.93
2022-10-31T02:30:18.131Z,8.60
2022-10-31T02:32:55.256Z,9.00
2022-10-31T02:35:40.034Z,8.20
2022-10-31T02:38:17.487Z,8.10
2022-10-31T02:40:55.616Z,8.70
2022-10-31T02:43:29.464Z,9.00
2022-10-31T02:46:03.603Z,8.53
2022-10-31T02:48:36.599Z,8.90
2022-10-31T02:51:06.466Z,8.23
2022-10-31T02:53:35.881Z,8.57
2022-10-31T02:56:08.042Z,8.77
2022-10-31T02:58:39.301Z,7.83
2022-10-31T03:01:33.848Z,8.57
2022-10-31T03:04:19.095Z,9.30
2022-10-31T03:06:53.477Z,8.20
2022-10-31T03:09:27.190Z,8.70
2022-10-31T03:12:01.148Z,8.93
2022-10-31T03:14:37.249Z,8.97
2022-10-31T03:17:10.642Z,9.20
2022-10-31T03:19:43.841Z,9.80
2022-10-31T03:22:18.700Z,9.83
2022-10-31T03:24:49.039Z,9.63
2022-10-31T03:27:21.078Z,9.40
2022-10-31T03:29:51.621Z,10.10
2022-10-31T03:32:24.336Z,9.07
2022-10-31T03:34:58.769Z,10.03
2022-10-31T03:37:29.914Z,10.00
2022-10-31T03:40:00.921Z,10.40
2022-10-31T03:42:33.710Z,9.97
2022-10-31T03:45:06.330Z,9.90
2022-10-31T03:47:35.155Z,10.10
2022-10-31T03:50:05.693Z,10.00
2022-10-31T03:52:39.556Z,9.97
2022-10-31T03:55:12.224Z,9.90
2022-10-31T03:57:46.469Z,8.77
2022-10-31T04:00:17.090Z,8.73
2022-10-31T04:02:48.179Z,8.67
2022-10-31T04:05:19.998Z,9.30
2022-10-31T04:07:57.286Z,8.70
2022-10-31T04:10:32.008Z,10.07
2022-10-31T04:13:06.844Z,8.97
2022-10-31T04:15:37.159Z,9.40
2022-10-31T04:18:07.332Z,8.67
2022-10-31T04:20:39.470Z,9.17
2022-10-31T04:23:16.150Z,11.23
2022-10-31T04:25:44.450Z,9.67
2022-10-31T04:28:12.764Z,9.00
2022-10-31T04:30:41.105Z,9.20
2022-10-31T04:33:09.373Z,9.47
2022-10-31T04:35:39.058Z,9.87
2022-10-31T04:38:07.342Z,9.77
2022-10-31T04:40:35.640Z,9.63
2022-10-31T04:43:04.280Z,8.80
2022-10-31T04:45:32.642Z,9.27
2022-10-31T04:48:01.205Z,9.40
2022-10-31T04:50:29.693Z,8.93
2022-10-31T04:52:59.368Z,10.53
2022-10-31T04:55:27.686Z,9.93
2022-10-31T04:57:56.029Z,9.90
2022-10-31T05:00:25.536Z,9.43
2022-10-31T05:02:55.624Z,10.60
2022-10-31T05:05:26.332Z,9.97
2022-10-31T05:07:54.932Z,9.63
2022-10-31T05:10:26.558Z,9.57
2022-10-31T05:12:56.093Z,9.60
2022-10-31T05:15:26.008Z,9.03
2022-10-31T05:17:54.911Z,9.40
2022-10-31T05:20:25.096Z,9.77
2022-10-31T05:22:55.168Z,9.87
2022-10-31T05:25:28.376Z,9.33
2022-10-31T05:27:57.844Z,9.47
2022-10-31T05:30:28.123Z,10.13
2022-10-31T05:32:56.931Z,9.33
2022-10-31T05:35:28.052Z,8.90
2022-10-31T05:37:56.447Z,9.43
2022-10-31T05:40:27.180Z,9.97
2022-10-31T05:42:57.255Z,10.67
2022-10-31T05:45:26.379Z,10.70
2022-10-31T05:47:55.249Z,10.30
2022-10-31T05:50:23.950Z,9.63
2022-10-31T05:52:57.763Z,10.57
2022-10-31T05:55:27.939Z,9.70
2022-10-31T05:57:57.019Z,11.30
2022-10-31T06:00:27.015Z,10.10
2022-10-31T06:03:01.087Z,11.67
2022-10-31T06:05:29.458Z,11.53
2022-10-31T06:07:58.236Z,13.13
2022-10-31T06:10:29.477Z,12.47
2022-10-31T06:12:57.798Z,12.73
2022-10-31T06:15:26.041Z,13.85
2022-10-31T06:18:02.242Z,14.03
2022-10-31T06:20:30.846Z,12.47
2022-10-31T06:22:59.535Z,12.37
2022-10-31T06:25:29.795Z,11.27
2022-10-31T06:27:58.208Z,9.73
2022-10-31T06:30:26.586Z,10.20
2022-10-31T06:32:55.122Z,12.07
2022-10-31T06:35:23.512Z,10.60
2022-10-31T06:37:55.045Z,11.20
2022-10-31T06:40:23.597Z,10.63
2022-10-31T06:43:00.132Z,10.33
2022-10-31T06:45:29.127Z,11.20
2022-10-31T06:50:46.893Z,10.87
2022-10-31T06:53:15.614Z,10.63
2022-10-31T06:55:44.342Z,10.63
2022-10-31T06:58:14.173Z,10.90
2022-10-31T07:00:42.479Z,10.30
2022-10-31T07:03:13.793Z,10.43
2022-10-31T07:05:42.187Z,10.33
2022-10-31T07:08:13.050Z,9.17
2022-10-31T07:10:43.010Z,10.93
2022-10-31T07:13:15.345Z,10.23
2022-10-31T07:15:45.621Z,10.40
2022-10-31T07:18:14.762Z,9.70
2022-10-31T07:20:43.141Z,10.37
2022-10-31T07:23:12.815Z,11.07
2022-10-31T07:25:41.692Z,10.57
2022-10-31T07:28:11.154Z,10.43
2022-10-31T07:30:41.181Z,8.00
2022-10-31T07:33:10.326Z,9.07
2022-10-31T07:35:38.651Z,7.83
2022-10-31T07:38:11.586Z,7.50
2022-10-31T07:40:40.393Z,10.43
2022-10-31T07:43:11.507Z,7.93
2022-10-31T07:45:43.714Z,8.40
2022-10-31T07:48:12.003Z,8.03
2022-10-31T07:50:41.085Z,6.63
2022-10-31T07:53:12.091Z,6.70
2022-10-31T07:55:40.860Z,6.80
2022-10-31T07:58:10.807Z,7.10
2022-10-31T08:00:40.143Z,7.03
2022-10-31T08:03:11.851Z,6.23
2022-10-31T08:05:42.049Z,5.63
2022-10-31T08:08:11.005Z,5.97
2022-10-31T08:10:39.951Z,4.87
2022-10-31T08:13:10.456Z,5.13
2022-10-31T08:15:45.604Z,6.77
2022-10-31T08:18:16.852Z,6.33
2022-10-31T08:20:45.845Z,5.73
2022-10-31T08:23:15.488Z,5.50
2022-10-31T08:25:44.084Z,5.32
2022-10-31T08:28:13.744Z,5.37
2022-10-31T08:30:42.731Z,5.07
2022-10-31T08:33:13.151Z,5.20
2022-10-31T08:35:43.222Z,5.60
2022-10-31T08:38:15.495Z,4.53
2022-10-31T08:40:44.041Z,5.27
2022-10-31T08:43:15.303Z,4.82
2022-10-31T08:45:44.491Z,4.22
2022-10-31T08:48:14.678Z,5.07
2022-10-31T08:50:45.336Z,5.13
2022-10-31T08:53:15.040Z,5.18
2022-10-31T08:55:44.580Z,4.93
2022-10-31T08:58:14.659Z,4.82
2022-10-31T09:00:43.446Z,4.70
2022-10-31T09:03:14.132Z,4.95
2022-10-31T09:05:43.943Z,4.90
2022-10-31T09:08:16.330Z,4.20
2022-10-31T09:10:53.153Z,5.68
2022-10-31T09:13:25.136Z,5.40
2022-10-31T09:15:56.391Z,5.10
2022-10-31T09:18:25.799Z,5.10
2022-10-31T09:20:55.545Z,5.57
2022-10-31T09:23:24.958Z,5.25
2022-10-31T09:25:55.489Z,5.82
2022-10-31T09:28:25.416Z,5.55
2022-10-31T09:30:55.401Z,5.68
2022-10-31T09:33:24.209Z,6.00
2022-10-31T09:35:57.249Z,5.55
2022-10-31T09:38:28.674Z,6.20
2022-10-31T09:41:05.147Z,5.90
2022-10-31T09:43:39.650Z,5.70
2022-10-31T09:46:14.530Z,6.10
2022-10-31T09:48:56.420Z,7.00
2022-10-31T09:51:31.977Z,6.68
2022-10-31T09:54:04.292Z,7.15
2022-10-31T09:56:35.893Z,6.07
2022-10-31T09:59:07.251Z,6.05
2022-10-31T10:01:42.091Z,6.05
2022-10-31T10:04:30.580Z,5.95
2022-10-31T10:07:01.254Z,5.50
2022-10-31T10:09:29.890Z,5.75
2022-10-31T10:12:06.172Z,5.20
2022-10-31T10:14:46.503Z,5.10
2022-10-31T10:17:24.400Z,5.13
2022-10-31T10:20:14.994Z,6.43
2022-10-31T10:22:49.239Z,5.45
2022-10-31T10:25:22.209Z,4.95
2022-10-31T10:28:07.013Z,5.47
2022-10-31T10:30:41.621Z,4.95
2022-10-31T10:33:14.409Z,5.57
2022-10-31T10:35:47.719Z,5.38
2022-10-31T10:38:24.954Z,4.97
2022-10-31T10:40:55.591Z,4.68
2022-10-31T10:43:25.589Z,4.90
2022-10-31T10:46:34.481Z,4.53
2022-10-31T10:49:12.447Z,4.85
2022-10-31T10:52:02.627Z,4.72
2022-10-31T10:54:45.146Z,4.60
2022-10-31T10:57:46.806Z,4.47
2022-10-31T11:00:22.178Z,4.88
2022-10-31T11:02:50.846Z,4.60
2022-10-31T11:05:26.546Z,5.18
2022-10-31T11:07:54.935Z,4.78
2022-10-31T11:10:24.790Z,5.30
2022-10-31T11:13:17.132Z,5.80
2022-10-31T11:15:55.129Z,4.85
2022-10-31T11:21:00.317Z,4.43
2022-10-31T11:23:30.477Z,5.35
2022-10-31T11:26:02.149Z,4.93
2022-10-31T11:28:33.393Z,4.57
2022-10-31T11:31:03.226Z,5.00
2022-10-31T11:33:34.889Z,4.97
2022-10-31T11:36:05.617Z,5.40
2022-10-31T11:38:42.712Z,5.07
2022-10-31T11:41:17.573Z,4.60
2022-10-31T11:43:51.667Z,5.03
2022-10-31T11:46:24.603Z,4.95
2022-10-31T11:48:55.644Z,5.10
2022-10-31T11:51:26.212Z,4.82
2022-10-31T11:53:59.894Z,4.90
2022-10-31T11:56:41.973Z,4.70
2022-10-31T11:59:22.966Z,4.43
2022-10-31T12:01:52.963Z,4.13
2022-10-31T12:04:26.809Z,4.03
2022-10-31T12:06:57.593Z,5.05
2022-10-31T12:09:28.079Z,4.47
2022-10-31T12:12:15.627Z,4.40
2022-10-31T12:14:57.323Z,4.72
2022-10-31T12:17:33.092Z,4.80
2022-10-31T12:20:10.609Z,4.70
2022-10-31T12:22:48.071Z,5.00
2022-10-31T12:25:35.654Z,4.15
2022-10-31T12:28:29.637Z,4.80
2022-10-31T12:31:05.693Z,4.40
2022-10-31T12:33:53.018Z,4.95
2022-10-31T12:36:35.245Z,5.22
2022-10-31T12:39:24.021Z,5.40
2022-10-31T12:42:04.460Z,4.15
2022-10-31T12:44:57.904Z,4.75
2022-10-31T12:47:41.702Z,4.57
2022-10-31T12:50:31.231Z,4.93
2022-10-31T12:53:09.117Z,4.25
2022-10-31T12:55:57.981Z,4.88
2022-10-31T12:58:31.361Z,5.10
2022-10-31T13:01:13.953Z,5.07
2022-10-31T13:03:49.947Z,4.95
2022-10-31T13:06:21.452Z,5.20
2022-10-31T13:08:54.634Z,4.70
2022-10-31T13:11:27.299Z,5.00
2022-10-31T13:14:05.377Z,5.88
2022-10-31T13:16:53.772Z,4.70
2022-10-31T13:19:26.948Z,5.60
2022-10-31T13:22:04.973Z,5.68
2022-10-31T13:24:38.866Z,4.97
2022-10-31T13:27:16.222Z,6.00
2022-10-31T13:29:52.307Z,5.15
2022-10-31T13:32:22.134Z,5.53
2022-10-31T13:34:55.213Z,6.07
2022-10-31T13:37:33.076Z,6.13
2022-10-31T13:40:11.993Z,5.10
2022-10-31T13:42:51.187Z,4.68
2022-10-31T13:45:21.788Z,4.63
2022-10-31T13:48:01.182Z,4.60
2022-10-31T13:50:31.110Z,4.53
2022-10-31T13:53:21.365Z,5.15
2022-10-31T13:55:54.459Z,4.75
2022-10-31T13:58:26.169Z,5.60
2022-10-31T14:01:08.231Z,4.57
2022-10-31T14:06:43.613Z,4.45
2022-10-31T14:09:29.348Z,4.43
2022-10-31T14:11:59.578Z,5.55
2022-10-31T14:14:43.922Z,4.55
2022-10-31T14:17:21.603Z,4.43
2022-10-31T14:20:23.950Z,5.28
2022-10-31T14:22:52.336Z,4.65
2022-10-31T14:25:33.369Z,5.20
2022-10-31T14:28:04.810Z,5.15
2022-10-31T14:30:33.868Z,4.60
2022-10-31T14:33:05.062Z,4.90
2022-10-31T14:35:53.038Z,4.25
2022-10-31T14:38:39.735Z,4.60
2022-10-31T14:41:42.396Z,4.55
2022-10-31T14:44:39.234Z,4.60
2022-10-31T14:47:18.351Z,4.25
2022-10-31T14:50:09.015Z,4.85
2022-10-31T14:52:40.320Z,4.97
2022-10-31T14:55:14.272Z,5.00
2022-10-31T14:57:50.732Z,4.80
2022-10-31T15:00:21.476Z,4.63
2022-10-31T15:02:59.573Z,4.32
2022-10-31T15:05:31.541Z,5.07
2022-10-31T15:08:01.625Z,5.90
2022-10-31T15:10:33.197Z,4.80
2022-10-31T15:13:11.697Z,5.13
2022-10-31T15:15:42.094Z,5.78
2022-10-31T15:18:18.450Z,5.50
2022-10-31T15:20:48.001Z,5.72
2022-10-31T15:23:22.168Z,5.32
2022-10-31T15:25:50.644Z,4.88
2022-10-31T15:28:24.990Z,5.15
2022-10-31T15:30:55.443Z,5.07
2022-10-31T15:33:25.837Z,5.43
2022-10-31T15:35:59.244Z,5.63
2022-10-31T15:38:30.499Z,5.38
2022-10-31T15:41:02.165Z,5.40
2022-10-31T15:43:34.589Z,6.22
2022-10-31T15:46:03.917Z,5.10
2022-10-31T15:48:35.594Z,6.28
2022-10-31T15:51:04.444Z,6.95
2022-10-31T15:53:39.075Z,6.25
2022-10-31T15:56:09.677Z,6.68
2022-10-31T15:58:48.814Z,6.22
2022-10-31T16:01:25.588Z,6.32
2022-10-31T16:04:06.617Z,7.28
2022-10-31T16:06:36.449Z,7.25
2022-10-31T16:09:21.077Z,7.18
2022-10-31T16:11:49.744Z,7.17
2022-10-31T16:14:25.469Z,7.50
2022-10-31T16:16:56.064Z,7.50
2022-10-31T16:19:26.580Z,7.88
2022-10-31T16:21:57.251Z,7.13
2022-10-31T16:24:29.866Z,7.63
2022-10-31T16:27:09.225Z,8.93
2022-10-31T16:29:44.593Z,8.47
2022-10-31T16:32:34.111Z,8.30
2022-10-31T16:35:24.997Z,7.70
2022-10-31T16:37:53.333Z,8.07
2022-10-31T16:40:24.384Z,7.77
2022-10-31T16:42:52.931Z,8.33
2022-10-31T16:45:22.734Z,8.73
2022-10-31T16:47:51.507Z,8.97
2022-10-31T16:50:22.244Z,8.40
2022-10-31T16:55:46.678Z,9.33
2022-10-31T16:58:19.903Z,9.87
2022-10-31T17:00:48.401Z,10.50
2022-10-31T17:03:16.757Z,10.20
2022-10-31T17:05:45.263Z,10.93
2022-10-31T17:08:13.674Z,11.50
2022-10-31T17:10:45.070Z,10.43
2022-10-31T17:13:19.351Z,10.07
2022-10-31T17:15:50.023Z,10.37
2022-10-31T17:18:22.927Z,10.27
2022-10-31T17:20:59.590Z,10.40
2022-10-31T17:23:28.465Z,11.90
2022-10-31T17:25:58.269Z,11.77
2022-10-31T17:28:27.913Z,11.03
2022-10-31T17:30:59.406Z,12.53
2022-10-31T17:33:28.062Z,11.27
2022-10-31T17:35:56.411Z,11.43
2022-10-31T17:38:24.717Z,12.00
2022-10-31T17:40:52.959Z,12.90
2022-10-31T17:43:27.155Z,15.10
2022-10-31T17:45:55.494Z,16.07
2022-10-31T17:48:23.780Z,15.07
2022-10-31T17:50:52.091Z,15.47
2022-10-31T17:53:20.381Z,16.37
2022-10-31T17:55:48.628Z,16.63
2022-10-31T17:58:16.879Z,16.20
2022-10-31T18:00:50.386Z,15.63
2022-10-31T18:03:19.706Z,18.07
2022-10-31T18:05:53.835Z,18.37
2022-10-31T18:08:26.984Z,15.67
2022-10-31T18:10:57.397Z,17.20
2022-10-31T18:13:25.881Z,16.10
2022-10-31T18:15:55.532Z,17.20
2022-10-31T18:18:24.047Z,15.83
2022-10-31T18:20:52.293Z,15.90
2022-10-31T18:23:20.640Z,15.80
2022-10-31T18:25:49.081Z,14.90
2022-10-31T18:28:17.358Z,17.70
2022-10-31T18:30:45.868Z,17.40
2022-10-31T18:33:15.542Z,16.97
2022-10-31T18:35:43.946Z,17.70
2022-10-31T18:38:12.209Z,17.40
2022-10-31T18:40:40.589Z,18.33
2022-10-31T18:43:08.905Z,17.47
2022-10-31T18:45:46.918Z,20.55
2022-10-31T18:48:21.600Z,19.87
2022-10-31T18:50:49.851Z,18.20
2022-10-31T18:53:18.139Z,18.30
2022-10-31T18:55:49.939Z,17.73
2022-10-31T18:58:18.764Z,21.02
2022-10-31T19:00:47.650Z,19.73
2022-10-31T19:03:21.951Z,20.83
2022-10-31T19:05:56.468Z,21.47
2022-10-31T19:08:24.957Z,22.30
2022-10-31T19:10:53.385Z,21.07
2022-10-31T19:13:21.989Z,21.67
2022-10-31T19:15:50.342Z,21.67
2022-10-31T19:18:20.063Z,20.37
2022-10-31T19:20:48.433Z,22.43
2022-10-31T19:23:17.529Z,24.63
2022-10-31T19:25:45.840Z,21.33
2022-10-31T19:28:14.181Z,22.87
2022-10-31T19:30:42.442Z,21.40
2022-10-31T19:33:10.793Z,21.50
2022-10-31T19:35:40.841Z,23.23
2022-10-31T19:38:09.105Z,22.67
2022-10-31T19:40:38.311Z,22.53
2022-10-31T19:43:07.059Z,22.17
2022-10-31T19:45:35.314Z,24.27
2022-10-31T19:48:04.134Z,27.37
2022-10-31T19:50:32.748Z,25.73
2022-10-31T19:53:02.393Z,28.07
2022-10-31T19:55:30.669Z,28.50
2022-10-31T19:58:02.591Z,27.17
2022-10-31T20:00:30.923Z,29.87
2022-10-31T20:03:01.098Z,28.53
2022-10-31T20:05:29.760Z,28.63
2022-10-31T20:07:58.091Z,27.80
2022-10-31T20:10:30.272Z,27.60
2022-10-31T20:12:58.757Z,28.70
2022-10-31T20:15:27.257Z,26.10
2022-10-31T20:17:55.558Z,25.90
2022-10-31T20:20:23.981Z,27.60
2022-10-31T20:22:52.242Z,26.07
2022-10-31T20:25:20.581Z,27.97
2022-10-31T20:27:50.214Z,26.63
2022-10-31T20:30:18.587Z,25.97
2022-10-31T20:32:50.032Z,25.63
2022-10-31T20:35:18.767Z,25.10
2022-10-31T20:37:47.087Z,24.60
2022-10-31T20:40:15.342Z,24.43
2022-10-31T20:42:43.576Z,23.83
2022-10-31T20:45:13.577Z,22.93
2022-10-31T20:47:41.802Z,24.10
2022-10-31T20:50:10.357Z,22.63
2022-10-31T20:52:40.683Z,24.53
2022-10-31T20:55:09.518Z,23.40
2022-10-31T20:57:40.814Z,25.77
2022-10-31T21:00:12.242Z,25.53
2022-10-31T21:02:43.068Z,26.00
2022-10-31T21:05:12.445Z,24.90
2022-10-31T21:07:41.524Z,26.00
2022-10-31T21:10:15.038Z,27.03
2022-10-31T21:12:44.975Z,26.93
2022-10-31T21:15:15.197Z,26.07
2022-10-31T21:17:44.820Z,26.30
2022-10-31T21:20:13.839Z,26.97
2022-10-31T21:22:42.264Z,26.57
2022-10-31T21:25:10.604Z,25.23
2022-10-31T21:27:38.911Z,27.30
2022-10-31T21:30:08.101Z,24.80
2022-10-31T21:32:36.452Z,23.90
2022-10-31T21:35:06.781Z,22.67
2022-10-31T21:37:35.028Z,22.10
2022-10-31T21:40:03.918Z,20.30
2022-10-31T21:42:32.195Z,20.63
2022-10-31T21:45:00.471Z,20.43
2022-10-31T21:47:28.701Z,19.93
2022-10-31T21:49:56.969Z,19.60
2022-10-31T21:52:26.612Z,20.03
2022-10-31T21:54:55.093Z,18.10
2022-10-31T21:57:23.430Z,17.73
2022-10-31T21:59:51.735Z,13.97
2022-10-31T22:02:20.030Z,17.80
2022-10-31T22:04:50.252Z,15.27
2022-10-31T22:07:18.824Z,14.40
2022-10-31T22:09:48.475Z,15.73
2022-10-31T22:12:17.230Z,14.50
2022-10-31T22:14:45.512Z,14.23
2022-10-31T22:17:13.724Z,15.53
2022-10-31T22:19:41.940Z,15.43
2022-10-31T22:22:12.134Z,14.00
2022-10-31T22:24:40.424Z,14.37
2022-10-31T22:27:10.059Z,14.27
2022-10-31T22:29:38.402Z,14.67
2022-10-31T22:32:06.888Z,13.07
2022-10-31T22:34:35.200Z,14.57
2022-10-31T22:37:03.447Z,14.43
2022-10-31T22:39:31.681Z,15.20
2022-10-31T22:41:59.913Z,15.23
2022-10-31T22:44:29.576Z,14.13
2022-10-31T22:46:57.830Z,13.60
2022-10-31T22:49:26.293Z,13.43
2022-10-31T22:51:55.540Z,13.40
2022-10-31T22:54:23.797Z,14.60
2022-10-31T22:56:52.057Z,14.23
2022-10-31T22:59:20.735Z,12.27
2022-10-31T23:01:50.501Z,14.37
2022-10-31T23:04:18.811Z,14.80
2022-10-31T23:06:47.114Z,14.57
2022-10-31T23:09:18.612Z,14.53
2022-10-31T23:11:47.346Z,13.57
2022-10-31T23:14:18.677Z,12.87
2022-10-31T23:16:50.351Z,13.00
2022-10-31T23:19:22.107Z,13.27
2022-10-31T23:21:57.639Z,12.60
2022-10-31T23:24:29.062Z,11.93
2022-10-31T23:27:07.961Z,12.57
2022-10-31T23:29:38.596Z,13.03
2022-10-31T23:32:09.994Z,11.47
2022-10-31T23:34:38.351Z,13.13
2022-10-31T23:39:36.469Z,12.10
2022-10-31T23:42:04.926Z,12.70
2022-10-31T23:44:33.175Z,10.73
2022-10-31T23:47:02.104Z,12.07
2022-10-31T23:49:31.929Z,11.80
2022-10-31T23:52:00.347Z,11.60
2022-10-31T23:54:29.309Z,11.37
2022-10-31T23:56:58.258Z,12.20
2022-10-31T23:59:27.442Z,10.70
